createdAt,value
2018-03-04T00:00:54.679Z,123.43
2018-03-04T00:02:01.216Z,132.15
2018-03-04T00:03:08.484Z,122.72
2018-03-04T00:04:13.526Z,126.28
2018-03-04T00:05:18.460Z,126.10
2018-03-04T00:06:23.453Z,125.53
2018-03-04T00:07:28.497Z,125.23
2018-03-04T00:08:33.568Z,120.00
2018-03-04T00:09:39.130Z,121.95
2018-03-04T00:10:44.412Z,131.00
2018-03-04T00:11:49.558Z,129.80
2018-03-04T00:12:55.303Z,123.90
2018-03-04T00:14:01.034Z,132.00
2018-03-04T00:15:06.703Z,122.43
2018-03-04T00:16:11.396Z,137.45
2018-03-04T00:17:17.186Z,124.80
2018-03-04T00:18:21.968Z,128.43
2018-03-04T00:19:27.186Z,132.55
2018-03-04T00:20:32.706Z,125.40
2018-03-04T00:21:38.766Z,125.90
2018-03-04T00:22:43.775Z,129.90
2018-03-04T00:23:48.820Z,127.40
2018-03-04T00:24:54.590Z,126.28
2018-03-04T00:25:59.410Z,124.07
2018-03-04T00:27:04.522Z,130.30
2018-03-04T00:28:09.354Z,132.25
2018-03-04T00:29:14.312Z,126.60
2018-03-04T00:30:19.274Z,129.35
2018-03-04T00:31:24.028Z,126.03
2018-03-04T00:32:29.078Z,125.43
2018-03-04T00:33:34.080Z,135.52
2018-03-04T00:34:38.906Z,130.75
2018-03-04T00:35:44.531Z,135.93
2018-03-04T00:36:49.537Z,129.77
2018-03-04T00:37:55.276Z,134.45
2018-03-04T00:39:00.675Z,128.00
2018-03-04T00:40:06.461Z,123.93
2018-03-04T00:41:11.811Z,130.45
2018-03-04T00:42:16.916Z,132.43
2018-03-04T00:43:22.160Z,133.15
2018-03-04T00:44:26.782Z,134.68
2018-03-04T00:45:32.068Z,130.20
2018-03-04T00:46:37.214Z,132.60
2018-03-04T00:47:42.305Z,139.37
2018-03-04T00:48:48.000Z,133.80
2018-03-04T00:49:53.173Z,132.50
2018-03-04T00:50:59.113Z,133.07
2018-03-04T00:52:04.887Z,133.87
2018-03-04T00:53:09.845Z,132.80
2018-03-04T00:54:14.987Z,142.13
2018-03-04T00:55:20.104Z,136.25
2018-03-04T00:56:26.618Z,131.75
2018-03-04T00:57:32.233Z,136.20
2018-03-04T00:58:39.233Z,126.78
2018-03-04T00:59:44.439Z,136.12
2018-03-04T01:00:49.960Z,139.20
2018-03-04T01:01:56.882Z,132.35
2018-03-04T01:03:03.441Z,136.62
2018-03-04T01:04:09.251Z,140.02
2018-03-04T01:05:17.232Z,136.60
2018-03-04T01:06:23.630Z,140.95
2018-03-04T01:07:28.776Z,134.75
2018-03-04T01:08:34.137Z,129.55
2018-03-04T01:09:40.282Z,138.98
2018-03-04T01:10:47.331Z,138.47
2018-03-04T01:11:53.863Z,138.93
2018-03-04T01:12:59.094Z,139.10
2018-03-04T01:14:04.473Z,131.37
2018-03-04T01:15:10.562Z,136.98
2018-03-04T01:16:15.809Z,143.37
2018-03-04T01:17:22.213Z,136.88
2018-03-04T01:18:29.267Z,137.90
2018-03-04T01:19:34.654Z,140.95
2018-03-04T01:20:41.124Z,141.55
2018-03-04T01:21:46.341Z,135.52
2018-03-04T01:22:51.723Z,139.70
2018-03-04T01:23:57.619Z,136.73
2018-03-04T01:25:02.869Z,139.07
2018-03-04T01:26:09.165Z,130.65
2018-03-04T01:27:16.026Z,146.52
2018-03-04T01:28:23.115Z,133.10
2018-03-04T01:29:30.342Z,134.60
2018-03-04T01:30:35.639Z,147.57
2018-03-04T01:31:41.083Z,134.87
2018-03-04T01:32:46.458Z,136.82
2018-03-04T01:33:51.868Z,138.35
2018-03-04T01:34:57.952Z,137.57
2018-03-04T01:36:04.933Z,140.25
2018-03-04T01:37:11.657Z,139.35
2018-03-04T01:38:18.304Z,144.85
2018-03-04T01:39:23.799Z,137.25
2018-03-04T01:40:29.477Z,139.32
2018-03-04T01:41:34.969Z,141.27
2018-03-04T01:42:41.336Z,143.82
2018-03-04T01:43:47.187Z,141.85
2018-03-04T01:44:52.146Z,138.20
2018-03-04T01:45:57.335Z,136.55
2018-03-04T01:47:03.459Z,137.45
2018-03-04T01:48:09.561Z,138.20
2018-03-04T01:49:16.258Z,133.23
2018-03-04T01:50:22.342Z,143.80
2018-03-04T01:51:36.130Z,137.45
2018-03-04T01:52:42.442Z,143.80
2018-03-04T01:53:47.813Z,140.45
2018-03-04T01:54:54.983Z,141.30
2018-03-04T01:56:01.367Z,138.05
2018-03-04T01:57:08.642Z,137.20
2018-03-04T01:58:15.091Z,140.50
2018-03-04T01:59:22.429Z,140.48
2018-03-04T02:00:29.771Z,137.45
2018-03-04T02:01:35.191Z,144.43
2018-03-04T02:02:41.506Z,140.02
2018-03-04T02:03:46.846Z,141.20
2018-03-04T02:04:52.357Z,140.82
2018-03-04T02:05:57.676Z,140.73
2018-03-04T02:07:05.212Z,136.30
2018-03-04T02:08:13.497Z,142.05
2018-03-04T02:09:19.396Z,145.12
2018-03-04T02:10:24.710Z,139.82
2018-03-04T02:11:30.136Z,140.82
2018-03-04T02:12:36.025Z,135.60
2018-03-04T02:13:41.407Z,142.67
2018-03-04T02:14:46.331Z,132.87
2018-03-04T02:15:51.498Z,137.18
2018-03-04T02:16:56.769Z,134.70
2018-03-04T02:18:02.669Z,140.52
2018-03-04T02:19:08.839Z,147.52
2018-03-04T02:20:14.582Z,142.20
2018-03-04T02:21:19.660Z,135.15
2018-03-04T02:22:25.873Z,139.37
2018-03-04T02:23:31.671Z,136.82
2018-03-04T02:24:37.097Z,132.25
2018-03-04T02:25:41.912Z,139.10
2018-03-04T02:26:46.977Z,139.05
2018-03-04T02:27:52.296Z,140.98
2018-03-04T02:28:59.196Z,146.90
2018-03-04T02:30:05.155Z,133.87
2018-03-04T02:31:11.181Z,139.90
2018-03-04T02:32:16.489Z,140.05
2018-03-04T02:33:21.650Z,136.75
2018-03-04T02:34:27.851Z,139.00
2018-03-04T02:35:33.632Z,140.70
2018-03-04T02:36:39.502Z,130.20
2018-03-04T02:37:45.780Z,138.35
2018-03-04T02:38:51.470Z,139.25
2018-03-04T02:39:56.427Z,135.98
2018-03-04T02:41:01.771Z,132.70
2018-03-04T02:42:08.806Z,133.25
2018-03-04T02:43:14.342Z,135.57
2018-03-04T02:44:19.761Z,138.75
2018-03-04T02:45:25.055Z,138.62
2018-03-04T02:46:30.249Z,135.55
2018-03-04T02:47:37.735Z,133.70
2018-03-04T02:48:43.952Z,138.00
2018-03-04T02:49:49.059Z,141.60
2018-03-04T02:50:56.218Z,141.20
2018-03-04T02:52:01.440Z,129.45
2018-03-04T02:53:07.161Z,137.55
2018-03-04T02:54:12.169Z,141.60
2018-03-04T02:55:17.694Z,152.43
2018-03-04T02:56:23.074Z,136.77
2018-03-04T02:57:28.693Z,133.73
2018-03-04T02:58:33.944Z,127.90
2018-03-04T02:59:39.871Z,135.43
2018-03-04T03:00:44.961Z,130.07
2018-03-04T03:01:52.059Z,132.48
2018-03-04T03:03:59.433Z,135.10
2018-03-04T03:05:05.612Z,137.25
2018-03-04T03:06:11.080Z,137.40
2018-03-04T03:07:17.613Z,123.00
2018-03-04T03:08:23.192Z,138.37
2018-03-04T03:09:31.265Z,150.57
2018-03-04T03:10:36.572Z,136.10
2018-03-04T03:11:42.278Z,135.77
2018-03-04T03:12:47.729Z,136.57
2018-03-04T03:13:53.265Z,136.57
2018-03-04T03:14:57.862Z,131.37
2018-03-04T03:16:03.169Z,134.63
2018-03-04T03:17:08.033Z,133.27
2018-03-04T03:18:12.842Z,131.23
2018-03-04T03:19:18.161Z,131.18
2018-03-04T03:20:22.962Z,136.68
2018-03-04T03:21:29.610Z,142.48
2018-03-04T03:22:34.776Z,141.45
2018-03-04T03:23:39.712Z,142.82
2018-03-04T03:24:45.042Z,137.80
2018-03-04T03:25:51.080Z,132.25
2018-03-04T03:26:55.935Z,134.35
2018-03-04T03:28:00.962Z,123.60
2018-03-04T03:29:06.209Z,138.30
2018-03-04T03:30:11.023Z,136.12
2018-03-04T03:31:15.968Z,128.43
2018-03-04T03:32:23.056Z,149.43
2018-03-04T03:33:29.373Z,166.95
2018-03-04T03:34:34.513Z,134.65
2018-03-04T03:35:41.035Z,137.73
2018-03-04T03:36:46.661Z,126.82
2018-03-04T03:37:53.230Z,135.43
2018-03-04T03:38:58.280Z,130.07
2018-03-04T03:40:03.032Z,124.87
2018-03-04T03:41:08.162Z,132.77
2018-03-04T03:42:14.312Z,121.47
2018-03-04T03:43:19.670Z,128.18
2018-03-04T03:44:26.193Z,124.78
2018-03-04T03:45:31.724Z,137.85
2018-03-04T03:46:38.086Z,135.82
2018-03-04T03:47:44.209Z,133.07
2018-03-04T03:48:49.922Z,127.00
2018-03-04T03:49:54.785Z,126.78
2018-03-04T03:51:01.072Z,132.82
2018-03-04T03:52:07.100Z,137.88
2018-03-04T03:53:12.579Z,133.95
2018-03-04T03:54:17.437Z,123.00
2018-03-04T03:55:24.362Z,129.07
2018-03-04T03:56:29.267Z,133.90
2018-03-04T03:57:33.996Z,124.97
2018-03-04T03:58:38.675Z,165.95
2018-03-04T03:59:44.888Z,134.10
2018-03-04T04:00:50.906Z,131.10
2018-03-04T04:01:57.143Z,133.37
2018-03-04T04:03:02.053Z,133.98
2018-03-04T04:04:07.689Z,125.12
2018-03-04T04:05:12.765Z,121.15
2018-03-04T04:06:17.790Z,131.57
2018-03-04T04:07:24.828Z,125.10
2018-03-04T04:08:30.174Z,128.25
2018-03-04T04:09:36.135Z,134.43
2018-03-04T04:10:41.648Z,124.68
2018-03-04T04:11:47.421Z,121.82
2018-03-04T04:12:52.978Z,123.68
2018-03-04T04:13:58.418Z,132.98
2018-03-04T04:15:04.324Z,121.28
2018-03-04T04:16:09.879Z,128.80
2018-03-04T04:17:16.178Z,130.25
2018-03-04T04:18:22.078Z,125.68
2018-03-04T04:19:29.058Z,124.35
2018-03-04T04:20:35.883Z,127.32
2018-03-04T04:21:41.134Z,125.57
2018-03-04T04:22:47.006Z,131.43
2018-03-04T04:23:54.079Z,131.65
2018-03-04T04:24:59.662Z,122.62
2018-03-04T04:26:04.516Z,130.25
2018-03-04T04:27:09.777Z,126.95
2018-03-04T04:28:14.388Z,128.05
2018-03-04T04:29:19.214Z,128.12
2018-03-04T04:30:24.395Z,135.40
2018-03-04T04:31:29.038Z,132.55
2018-03-04T04:32:34.559Z,130.75
2018-03-04T04:33:39.598Z,124.12
2018-03-04T04:34:45.291Z,122.07
2018-03-04T04:35:50.512Z,132.55
2018-03-04T04:36:55.308Z,164.62
2018-03-04T04:38:00.161Z,140.15
2018-03-04T04:39:05.200Z,134.30
2018-03-04T04:40:11.423Z,131.35
2018-03-04T04:41:16.036Z,130.50
2018-03-04T04:42:20.534Z,127.23
2018-03-04T04:43:25.203Z,123.05
2018-03-04T04:44:30.617Z,127.85
2018-03-04T04:45:36.681Z,134.60
2018-03-04T04:46:42.549Z,130.93
2018-03-04T04:47:47.903Z,128.97
2018-03-04T04:48:55.029Z,129.63
2018-03-04T04:49:59.758Z,127.75
2018-03-04T04:51:05.668Z,128.80
2018-03-04T04:52:10.961Z,133.05
2018-03-04T04:53:15.668Z,131.10
2018-03-04T04:54:21.238Z,137.00
2018-03-04T04:55:26.036Z,125.62
2018-03-04T04:56:30.675Z,132.73
2018-03-04T04:57:35.126Z,132.02
2018-03-04T04:58:40.528Z,130.37
2018-03-04T04:59:45.974Z,129.03
2018-03-04T05:00:50.468Z,130.75
2018-03-04T05:01:56.635Z,127.30
2018-03-04T05:03:01.127Z,141.95
2018-03-04T05:04:07.558Z,130.12
2018-03-04T05:05:12.389Z,128.07
2018-03-04T05:06:17.528Z,134.93
2018-03-04T05:07:23.195Z,137.10
2018-03-04T05:08:29.650Z,123.20
2018-03-04T05:09:34.209Z,135.37
2018-03-04T05:10:38.999Z,135.90
2018-03-04T05:11:46.185Z,128.98
2018-03-04T05:12:51.434Z,129.48
2018-03-04T05:13:56.615Z,127.93
2018-03-04T05:15:01.888Z,126.90
2018-03-04T05:16:07.856Z,132.67
2018-03-04T05:17:13.554Z,129.93
2018-03-04T05:18:19.128Z,135.52
2018-03-04T05:19:23.743Z,140.60
2018-03-04T05:20:28.950Z,137.57
2018-03-04T05:21:34.697Z,138.65
2018-03-04T05:22:40.641Z,126.65
2018-03-04T05:23:45.706Z,132.90
2018-03-04T05:24:51.637Z,131.23
2018-03-04T05:25:57.987Z,148.23
2018-03-04T05:27:02.537Z,142.68
2018-03-04T05:28:07.028Z,134.40
2018-03-04T05:29:11.543Z,132.32
2018-03-04T05:30:16.820Z,129.40
2018-03-04T05:31:22.846Z,135.98
2018-03-04T05:32:28.354Z,137.45
2018-03-04T05:33:32.834Z,135.93
2018-03-04T05:34:37.652Z,135.12
2018-03-04T05:35:42.269Z,132.68
2018-03-04T05:36:47.039Z,135.77
2018-03-04T05:37:51.930Z,141.75
2018-03-04T05:38:57.562Z,138.02
2018-03-04T05:40:02.596Z,141.95
2018-03-04T05:41:08.298Z,139.45
2018-03-04T05:42:13.439Z,140.77
2018-03-04T05:43:18.178Z,132.93
2018-03-04T05:44:22.684Z,136.77
2018-03-04T05:45:27.640Z,139.98
2018-03-04T05:46:32.581Z,142.27
2018-03-04T05:47:39.675Z,142.40
2018-03-04T05:48:44.896Z,143.85
2018-03-04T05:49:49.655Z,131.80
2018-03-04T05:50:54.194Z,132.35
2018-03-04T05:51:59.454Z,139.65
2018-03-04T05:53:04.085Z,145.48
2018-03-04T05:54:12.405Z,151.23
2018-03-04T05:55:17.151Z,137.45
2018-03-04T05:56:22.191Z,146.30
2018-03-04T05:57:27.073Z,145.00
2018-03-04T05:58:32.414Z,141.98
2018-03-04T05:59:37.116Z,141.97
2018-03-04T06:00:42.029Z,144.70
2018-03-04T06:01:47.363Z,164.73
2018-03-04T06:02:52.159Z,161.12
2018-03-04T06:03:56.714Z,147.35
2018-03-04T06:05:02.156Z,139.02
2018-03-04T06:06:07.983Z,143.20
2018-03-04T06:07:13.748Z,145.37
2018-03-04T06:08:19.148Z,147.60
2018-03-04T06:09:24.629Z,148.37
2018-03-04T06:10:30.027Z,143.85
2018-03-04T06:11:35.565Z,140.20
2018-03-04T06:12:42.321Z,146.93
2018-03-04T06:13:47.969Z,144.90
2018-03-04T06:14:54.567Z,151.77
2018-03-04T06:15:59.245Z,149.90
2018-03-04T06:17:05.485Z,142.20
2018-03-04T06:18:11.049Z,147.80
2018-03-04T06:19:15.914Z,144.62
2018-03-04T06:20:20.784Z,144.30
2018-03-04T06:21:30.147Z,151.48
2018-03-04T06:22:35.631Z,162.88
2018-03-04T06:23:42.587Z,157.07
2018-03-04T06:24:47.686Z,143.95
2018-03-04T06:25:53.333Z,139.73
2018-03-04T06:26:57.910Z,143.43
2018-03-04T06:28:03.606Z,155.93
2018-03-04T06:29:09.129Z,151.93
2018-03-04T06:30:14.983Z,138.30
2018-03-04T06:31:20.766Z,147.07
2018-03-04T06:32:27.312Z,139.65
2018-03-04T06:33:32.264Z,147.65
2018-03-04T06:34:39.340Z,144.85
2018-03-04T06:35:44.176Z,143.05
2018-03-04T06:36:50.533Z,143.13
2018-03-04T06:37:55.758Z,140.62
2018-03-04T06:39:00.472Z,148.98
2018-03-04T06:40:06.882Z,150.68
2018-03-04T06:41:12.715Z,139.35
2018-03-04T06:42:19.534Z,149.98
2018-03-04T06:43:24.958Z,134.25
2018-03-04T06:44:29.969Z,140.25
2018-03-04T06:45:35.582Z,155.77
2018-03-04T06:46:41.710Z,141.95
2018-03-04T06:47:46.494Z,150.12
2018-03-04T06:48:52.328Z,147.02
2018-03-04T06:49:58.331Z,134.85
2018-03-04T06:51:03.986Z,134.12
2018-03-04T06:52:10.299Z,144.15
2018-03-04T06:53:15.203Z,146.07
2018-03-04T06:54:20.519Z,144.30
2018-03-04T06:55:25.502Z,142.55
2018-03-04T06:56:30.997Z,139.50
2018-03-04T06:57:37.113Z,134.98
2018-03-04T06:58:44.059Z,155.93
2018-03-04T06:59:49.058Z,146.85
2018-03-04T07:00:55.340Z,140.17
2018-03-04T07:02:01.505Z,134.00
2018-03-04T07:03:07.966Z,137.50
2018-03-04T07:04:13.827Z,135.77
2018-03-04T07:05:20.588Z,146.27
2018-03-04T07:06:26.878Z,136.90
2018-03-04T07:07:32.073Z,144.80
2018-03-04T07:08:37.404Z,130.98
2018-03-04T07:09:43.008Z,133.93
2018-03-04T07:10:48.223Z,134.27
2018-03-04T07:11:53.690Z,128.87
2018-03-04T07:13:00.285Z,132.57
2018-03-04T07:14:07.124Z,132.02
2018-03-04T07:15:12.581Z,131.83
2018-03-04T07:16:18.640Z,129.90
2018-03-04T07:17:24.007Z,137.75
2018-03-04T07:18:31.120Z,137.98
2018-03-04T07:19:38.607Z,145.05
2018-03-04T07:20:44.840Z,137.47
2018-03-04T07:21:50.190Z,144.07
2018-03-04T07:22:56.782Z,141.32
2018-03-04T07:24:02.432Z,138.57
2018-03-04T07:25:08.749Z,156.82
2018-03-04T07:26:14.547Z,162.23
2018-03-04T07:27:23.297Z,162.50
2018-03-04T07:28:29.757Z,143.73
2018-03-04T07:29:35.594Z,144.02
2018-03-04T07:30:40.891Z,137.27
2018-03-04T07:31:47.065Z,139.65
2018-03-04T07:32:53.149Z,139.20
2018-03-04T07:33:58.399Z,148.60
2018-03-04T07:35:03.664Z,132.98
2018-03-04T07:36:08.844Z,133.35
2018-03-04T07:37:14.094Z,127.50
2018-03-04T07:38:19.281Z,129.30
2018-03-04T07:39:24.645Z,133.23
2018-03-04T07:40:30.848Z,135.10
2018-03-04T07:41:35.826Z,138.90
2018-03-04T07:42:41.218Z,138.95
2018-03-04T07:43:47.368Z,146.85
2018-03-04T07:44:53.848Z,137.45
2018-03-04T07:45:59.123Z,140.07
2018-03-04T07:47:05.311Z,140.82
2018-03-04T07:48:10.691Z,139.68
2018-03-04T07:49:17.231Z,129.50
2018-03-04T07:50:25.057Z,128.82
2018-03-04T07:51:30.428Z,122.15
2018-03-04T07:52:35.689Z,122.62
2018-03-04T07:53:41.901Z,135.50
2018-03-04T07:54:48.979Z,127.65
2018-03-04T07:55:55.509Z,157.77
2018-03-04T07:57:01.177Z,150.48
2018-03-04T07:58:06.640Z,138.25
2018-03-04T07:59:11.984Z,125.60
2018-03-04T08:00:19.085Z,134.73
2018-03-04T08:01:24.750Z,138.48
2018-03-04T08:02:31.466Z,126.55
2018-03-04T08:03:37.712Z,126.35
2018-03-04T08:04:42.858Z,266.92
2018-03-04T08:05:49.489Z,429.33
2018-03-04T08:06:54.828Z,534.47
2018-03-04T08:08:01.318Z,229.30
2018-03-04T08:09:06.810Z,255.70
2018-03-04T08:10:18.285Z,193.60
2018-03-04T08:11:24.339Z,174.25
2018-03-04T08:12:31.084Z,182.73
2018-03-04T08:13:37.478Z,161.07
2018-03-04T08:14:45.229Z,147.73
2018-03-04T08:15:50.431Z,151.80
2018-03-04T08:16:55.736Z,136.47
2018-03-04T08:18:02.669Z,134.57
2018-03-04T08:19:07.845Z,123.32
2018-03-04T08:20:12.933Z,130.32
2018-03-04T08:21:19.288Z,124.43
2018-03-04T08:22:27.010Z,135.60
2018-03-04T08:23:32.691Z,148.37
2018-03-04T08:24:41.871Z,137.50
2018-03-04T08:25:48.322Z,136.73
2018-03-04T08:27:05.349Z,137.63
2018-03-04T08:28:46.867Z,124.18
2018-03-04T08:29:51.958Z,127.85
2018-03-04T08:30:58.904Z,130.32
2018-03-04T08:32:04.970Z,113.32
2018-03-04T08:33:10.188Z,123.72
2018-03-04T08:34:15.326Z,124.50
2018-03-04T08:35:23.606Z,129.85
2018-03-04T08:36:29.417Z,122.82
2018-03-04T08:37:35.454Z,122.70
2018-03-04T08:38:40.598Z,121.65
2018-03-04T08:39:46.405Z,107.47
2018-03-04T08:40:52.542Z,118.68
2018-03-04T08:41:57.724Z,121.43
2018-03-04T08:43:04.550Z,123.33
2018-03-04T08:44:10.650Z,116.25
2018-03-04T08:45:15.696Z,122.85
2018-03-04T08:46:22.621Z,120.78
2018-03-04T08:47:28.427Z,117.97
2018-03-04T08:48:34.470Z,112.68
2018-03-04T08:49:39.661Z,114.10
2018-03-04T08:50:44.977Z,120.80
2018-03-04T08:51:50.044Z,120.82
2018-03-04T08:52:55.835Z,144.52
2018-03-04T08:54:03.774Z,119.53
2018-03-04T08:55:09.706Z,122.63
2018-03-04T08:56:16.073Z,121.93
2018-03-04T08:57:23.052Z,116.82
2018-03-04T08:58:30.347Z,100.97
2018-03-04T08:59:35.279Z,129.63
2018-03-04T09:00:40.400Z,120.97
2018-03-04T09:01:47.315Z,111.10
2018-03-04T09:02:52.507Z,107.53
2018-03-04T09:03:58.168Z,106.32
2018-03-04T09:05:03.220Z,111.93
2018-03-04T09:06:08.214Z,114.07
2018-03-04T09:07:14.955Z,108.12
2018-03-04T09:08:20.180Z,114.03
2018-03-04T09:09:28.076Z,114.00
2018-03-04T09:10:33.223Z,128.62
2018-03-04T09:11:38.999Z,116.83
2018-03-04T09:12:44.134Z,106.10
2018-03-04T09:13:51.524Z,106.12
2018-03-04T09:14:56.361Z,108.17
2018-03-04T09:16:01.349Z,111.47
2018-03-04T09:17:06.379Z,111.28
2018-03-04T09:18:12.364Z,115.60
2018-03-04T09:19:18.794Z,112.32
2018-03-04T09:20:23.626Z,107.53
2018-03-04T09:21:28.803Z,110.03
2018-03-04T09:22:33.938Z,105.07
2018-03-04T09:23:38.915Z,102.60
2018-03-04T09:24:44.858Z,106.68
2018-03-04T09:25:49.637Z,254.73
2018-03-04T09:26:54.498Z,123.63
2018-03-04T09:28:00.057Z,107.30
2018-03-04T09:29:06.658Z,101.32
2018-03-04T09:30:11.678Z,94.37
2018-03-04T09:31:17.341Z,106.95
2018-03-04T09:32:23.654Z,119.00
2018-03-04T09:33:29.481Z,101.15
2018-03-04T09:34:35.713Z,105.18
2018-03-04T09:35:42.397Z,110.22
2018-03-04T09:36:48.413Z,103.05
2018-03-04T09:37:54.203Z,96.07
2018-03-04T09:38:59.242Z,109.32
2018-03-04T09:40:04.948Z,107.68
2018-03-04T09:41:10.855Z,104.87
2018-03-04T09:42:16.982Z,109.10
2018-03-04T09:43:23.191Z,107.18
2018-03-04T09:44:28.083Z,101.85
2018-03-04T09:45:33.081Z,106.03
2018-03-04T09:47:57.996Z,93.57
2018-03-04T09:49:03.602Z,95.00
2018-03-04T09:50:08.649Z,96.82
2018-03-04T09:51:15.820Z,97.18
2018-03-04T09:52:21.141Z,98.57
2018-03-04T09:53:26.015Z,95.57
2018-03-04T09:54:32.687Z,94.95
2018-03-04T09:55:37.595Z,94.25
2018-03-04T09:56:42.533Z,97.88
2018-03-04T09:57:49.229Z,91.60
2018-03-04T09:58:54.514Z,96.28
2018-03-04T09:59:59.782Z,93.20
2018-03-04T10:01:06.167Z,92.43
2018-03-04T10:02:11.381Z,90.62
2018-03-04T10:03:16.223Z,94.80
2018-03-04T10:04:21.040Z,92.45
2018-03-04T10:05:28.242Z,85.07
2018-03-04T10:06:33.290Z,85.50
2018-03-04T10:07:38.529Z,83.47
2018-03-04T10:08:44.043Z,86.12
2018-03-04T10:09:48.907Z,85.12
2018-03-04T10:10:54.259Z,87.75
2018-03-04T10:11:59.957Z,88.10
2018-03-04T10:13:05.477Z,87.47
2018-03-04T10:14:10.810Z,88.25
2018-03-04T10:15:15.625Z,85.43
2018-03-04T10:16:20.599Z,85.93
2018-03-04T10:17:25.284Z,90.80
2018-03-04T10:18:30.914Z,83.28
2018-03-04T10:19:37.546Z,94.70
2018-03-04T10:20:42.409Z,89.90
2018-03-04T10:21:48.181Z,90.80
2018-03-04T10:22:53.116Z,89.00
2018-03-04T10:23:59.120Z,85.45
2018-03-04T10:25:04.234Z,92.85
2018-03-04T10:26:10.061Z,83.03
2018-03-04T10:27:15.072Z,81.43
2018-03-04T10:28:19.953Z,78.95
2018-03-04T10:29:24.836Z,82.80
2018-03-04T10:30:29.805Z,87.15
2018-03-04T10:31:35.989Z,84.47
2018-03-04T10:32:40.957Z,82.22
2018-03-04T10:33:47.363Z,79.68
2018-03-04T10:34:52.824Z,80.78
2018-03-04T10:35:57.678Z,83.50
2018-03-04T10:37:02.802Z,88.78
2018-03-04T10:38:07.786Z,100.78
2018-03-04T10:39:12.508Z,90.32
2018-03-04T10:40:17.242Z,99.07
2018-03-04T10:41:22.506Z,82.22
2018-03-04T10:42:28.316Z,80.68
2018-03-04T10:43:33.095Z,77.50
2018-03-04T10:44:38.715Z,79.28
2018-03-04T10:45:44.376Z,79.62
2018-03-04T10:46:49.216Z,80.20
2018-03-04T10:47:54.478Z,77.03
2018-03-04T10:48:59.840Z,79.13
2018-03-04T10:50:05.916Z,72.72
2018-03-04T10:51:10.859Z,74.87
2018-03-04T10:52:15.921Z,79.87
2018-03-04T10:53:21.908Z,79.05
2018-03-04T10:54:26.741Z,76.05
2018-03-04T10:55:31.622Z,81.55
2018-03-04T10:56:36.505Z,74.68
2018-03-04T10:57:42.076Z,73.80
2018-03-04T10:58:46.950Z,74.70
2018-03-04T10:59:51.898Z,75.30
2018-03-04T11:00:59.113Z,70.63
2018-03-04T11:02:05.188Z,74.77
2018-03-04T11:03:11.041Z,68.90
2018-03-04T11:04:16.308Z,71.22
2018-03-04T11:05:22.139Z,68.00
2018-03-04T11:06:27.859Z,72.22
2018-03-04T11:07:33.035Z,79.00
2018-03-04T11:08:40.821Z,94.13
2018-03-04T11:09:46.578Z,92.07
2018-03-04T11:10:52.418Z,68.57
2018-03-04T11:11:58.000Z,70.40
2018-03-04T11:13:02.913Z,66.82
2018-03-04T11:14:08.726Z,67.53
2018-03-04T11:15:14.035Z,69.93
2018-03-04T11:16:19.005Z,69.95
2018-03-04T11:17:24.204Z,79.47
2018-03-04T11:18:29.093Z,68.13
2018-03-04T11:19:34.705Z,65.25
2018-03-04T11:20:39.715Z,64.78
2018-03-04T11:21:46.050Z,68.12
2018-03-04T11:22:50.862Z,63.00
2018-03-04T11:23:56.827Z,62.40
2018-03-04T11:25:01.668Z,70.32
2018-03-04T11:26:07.090Z,62.72
2018-03-04T11:27:12.626Z,59.70
2018-03-04T11:28:17.557Z,64.28
2018-03-04T11:29:24.080Z,61.20
2018-03-04T11:30:29.391Z,67.55
2018-03-04T11:31:35.505Z,65.37
2018-03-04T11:32:41.028Z,63.10
2018-03-04T11:33:45.931Z,62.13
2018-03-04T11:34:51.975Z,63.25
2018-03-04T11:35:56.793Z,63.72
2018-03-04T11:37:01.769Z,91.00
2018-03-04T11:38:07.372Z,85.05
2018-03-04T11:39:12.272Z,65.45
2018-03-04T11:40:21.489Z,63.17
2018-03-04T11:41:26.847Z,61.50
2018-03-04T11:42:33.444Z,65.65
2018-03-04T11:43:39.223Z,61.37
2018-03-04T11:44:44.054Z,60.78
2018-03-04T11:45:48.851Z,61.13
2018-03-04T11:46:54.507Z,73.82
2018-03-04T11:47:59.875Z,68.82
2018-03-04T11:49:06.831Z,63.50
2018-03-04T11:50:12.388Z,57.75
2018-03-04T11:51:18.721Z,62.72
2018-03-04T11:52:29.896Z,60.58
2018-03-04T11:53:34.738Z,63.67
2018-03-04T11:54:40.630Z,59.17
2018-03-04T11:55:46.604Z,56.67
2018-03-04T11:56:52.188Z,61.72
2018-03-04T11:57:57.912Z,63.95
2018-03-04T11:59:03.392Z,58.08
2018-03-04T12:00:08.249Z,60.33
2018-03-04T12:01:13.929Z,62.40
2018-03-04T12:02:20.662Z,61.05
2018-03-04T12:03:26.759Z,65.03
2018-03-04T12:04:32.558Z,58.97
2018-03-04T12:05:37.972Z,59.83
2018-03-04T12:06:43.858Z,60.10
2018-03-04T12:07:49.156Z,62.28
2018-03-04T12:08:54.820Z,62.83
2018-03-04T12:10:00.056Z,59.10
2018-03-04T12:11:05.061Z,52.80
2018-03-04T12:12:10.799Z,60.95
2018-03-04T12:13:15.670Z,67.65
2018-03-04T12:14:21.644Z,64.87
2018-03-04T12:15:27.258Z,63.97
2018-03-04T12:16:32.204Z,66.75
2018-03-04T12:17:37.840Z,65.15
2018-03-04T12:18:43.508Z,60.80
2018-03-04T12:19:49.317Z,52.42
2018-03-04T12:20:55.029Z,54.58
2018-03-04T12:22:00.299Z,57.28
2018-03-04T12:23:06.037Z,53.53
2018-03-04T12:24:12.486Z,53.75
2018-03-04T12:25:17.510Z,61.00
2018-03-04T12:26:23.957Z,55.10
2018-03-04T12:27:28.889Z,57.85
2018-03-04T12:28:35.587Z,58.72
2018-03-04T12:29:41.149Z,63.30
2018-03-04T12:30:46.322Z,124.53
2018-03-04T12:31:53.266Z,95.70
2018-03-04T12:32:59.094Z,66.30
2018-03-04T12:34:04.763Z,74.15
2018-03-04T12:35:09.727Z,58.80
2018-03-04T12:36:15.047Z,53.75
2018-03-04T12:37:20.330Z,55.90
2018-03-04T12:38:26.813Z,60.15
2018-03-04T12:39:32.521Z,50.42
2018-03-04T12:40:39.218Z,50.55
2018-03-04T12:41:44.934Z,53.33
2018-03-04T12:42:50.918Z,54.95
2018-03-04T12:43:57.808Z,56.35
2018-03-04T12:45:04.768Z,53.15
2018-03-04T12:46:09.578Z,49.50
2018-03-04T12:47:14.607Z,53.00
2018-03-04T12:48:35.227Z,57.42
2018-03-04T12:49:43.387Z,58.00
2018-03-04T12:50:48.845Z,70.93
2018-03-04T12:51:54.066Z,100.05
2018-03-04T12:52:58.920Z,96.60
2018-03-04T12:54:04.455Z,90.93
2018-03-04T12:55:12.006Z,57.28
2018-03-04T12:56:19.102Z,45.90
2018-03-04T12:57:24.870Z,61.95
2018-03-04T12:58:29.694Z,57.25
2018-03-04T12:59:34.815Z,53.63
2018-03-04T13:00:39.795Z,53.95
2018-03-04T13:01:44.710Z,54.38
2018-03-04T13:02:50.342Z,47.85
2018-03-04T13:03:56.744Z,51.10
2018-03-04T13:05:01.668Z,97.20
2018-03-04T13:06:07.431Z,55.05
2018-03-04T13:07:13.622Z,53.83
2018-03-04T13:08:19.594Z,47.80
2018-03-04T13:09:25.276Z,47.62
2018-03-04T13:10:30.607Z,54.95
2018-03-04T13:11:36.707Z,46.30
2018-03-04T13:12:41.581Z,58.05
2018-03-04T13:13:46.254Z,51.95
2018-03-04T13:14:53.706Z,99.62
2018-03-04T13:16:00.494Z,52.65
2018-03-04T13:17:05.764Z,64.15
2018-03-04T13:18:19.261Z,46.40
2018-03-04T13:19:25.019Z,41.85
2018-03-04T13:20:32.847Z,136.00
2018-03-04T13:21:37.673Z,68.25
2018-03-04T13:22:42.654Z,49.90
2018-03-04T13:23:51.887Z,39.50
2018-03-04T13:24:58.031Z,122.82
2018-03-04T13:26:03.465Z,41.13
2018-03-04T13:27:09.599Z,45.90
2018-03-04T13:28:14.478Z,38.03
2018-03-04T13:29:21.813Z,38.80
2018-03-04T13:30:27.517Z,41.45
2018-03-04T13:31:32.161Z,38.38
2018-03-04T13:32:37.766Z,46.72
2018-03-04T13:33:42.535Z,49.88
2018-03-04T13:34:47.324Z,56.50
2018-03-04T13:35:53.608Z,44.35
2018-03-04T13:36:59.827Z,107.13
2018-03-04T13:38:05.420Z,87.43
2018-03-04T13:39:11.016Z,44.35
2018-03-04T13:40:18.268Z,49.80
2018-03-04T13:41:23.271Z,51.00
2018-03-04T13:42:29.037Z,46.95
2018-03-04T13:43:34.057Z,39.92
2018-03-04T13:44:39.494Z,42.42
2018-03-04T13:45:45.223Z,40.38
2018-03-04T13:46:51.079Z,41.47
2018-03-04T13:47:56.928Z,52.13
2018-03-04T13:49:02.778Z,51.88
2018-03-04T13:50:12.452Z,68.87
2018-03-04T13:51:17.169Z,53.85